createdAt,value
2022-08-21T00:00:51.079Z,20.11
2022-08-21T00:05:54.796Z,20.04
2022-08-21T00:10:58.623Z,20.14
2022-08-21T00:16:02.342Z,20.26
2022-08-21T00:21:05.548Z,20.36
2022-08-21T00:26:09.328Z,20.25
2022-08-21T00:31:13.155Z,20.09
2022-08-21T00:36:16.629Z,20.03
2022-08-21T00:41:37.067Z,20.02
2022-08-21T00:46:44.135Z,20.06
2022-08-21T00:51:54.702Z,20.14
2022-08-21T00:57:03.951Z,20.14
2022-08-21T01:02:10.286Z,20.23
2022-08-21T01:07:14.874Z,20.36
2022-08-21T01:12:18.817Z,20.41
2022-08-21T01:17:22.726Z,20.39
2022-08-21T01:22:26.447Z,20.30
2022-08-21T01:27:29.861Z,20.13
2022-08-21T01:32:33.273Z,20.07
2022-08-21T01:37:36.794Z,20.02
2022-08-21T01:42:40.407Z,20.03
2022-08-21T01:47:45.049Z,20.05
2022-08-21T01:52:49.592Z,20.12
2022-08-21T01:57:53.105Z,20.11
2022-08-21T02:02:57.363Z,20.18
2022-08-21T02:08:01.163Z,20.17
2022-08-21T02:13:05.086Z,20.13
2022-08-21T02:18:08.501Z,20.07
2022-08-21T02:23:14.062Z,20.06
2022-08-21T02:28:17.478Z,20.09
2022-08-21T02:33:21.103Z,20.07
2022-08-21T02:38:25.838Z,20.06
2022-08-21T02:43:29.970Z,20.01
2022-08-21T02:48:34.980Z,19.99
2022-08-21T02:53:39.357Z,19.98
2022-08-21T02:58:48.913Z,19.99
2022-08-21T03:03:52.840Z,19.99
2022-08-21T03:08:56.459Z,20.00
2022-08-21T03:13:59.667Z,20.00
2022-08-21T03:19:04.484Z,20.01
2022-08-21T03:24:08.421Z,19.97
2022-08-21T03:29:12.110Z,19.92
2022-08-21T03:34:15.573Z,19.83
2022-08-21T03:39:19.907Z,19.79
2022-08-21T03:44:23.525Z,19.84
2022-08-21T03:49:27.510Z,19.81
2022-08-21T03:54:31.275Z,19.82
2022-08-21T03:59:34.689Z,19.91
2022-08-21T04:04:38.509Z,19.99
2022-08-21T04:09:41.924Z,20.02
2022-08-21T04:14:45.850Z,20.04
2022-08-21T04:19:53.188Z,20.07
2022-08-21T04:24:57.182Z,20.12
2022-08-21T04:30:01.414Z,20.19
2022-08-21T04:35:10.166Z,20.29
2022-08-21T04:40:15.673Z,20.38
2022-08-21T04:45:23.226Z,20.46
2022-08-21T04:50:37.698Z,20.62
2022-08-21T04:55:43.232Z,20.73
2022-08-21T05:00:47.600Z,20.91
2022-08-21T05:05:51.269Z,21.08
2022-08-21T05:11:00.169Z,21.06
2022-08-21T05:16:04.596Z,21.04
2022-08-21T05:21:07.911Z,21.21
2022-08-21T05:26:18.141Z,21.34
2022-08-21T05:31:22.207Z,21.56
2022-08-21T05:36:25.623Z,21.79
2022-08-21T05:41:28.932Z,21.89
2022-08-21T05:46:32.487Z,22.02
2022-08-21T05:51:36.585Z,22.09
2022-08-21T05:56:40.197Z,22.14
2022-08-21T06:01:43.573Z,22.23
2022-08-21T06:06:48.994Z,22.51
2022-08-21T06:11:52.382Z,22.64
2022-08-21T06:16:55.694Z,22.86
2022-08-21T06:21:59.517Z,22.95
2022-08-21T06:27:09.586Z,22.99
2022-08-21T06:32:14.051Z,22.98
2022-08-21T06:37:19.590Z,23.07
2022-08-21T06:42:23.000Z,23.19
2022-08-21T06:47:31.537Z,23.02
2022-08-21T06:52:38.940Z,23.24
2022-08-21T06:57:42.460Z,23.47
2022-08-21T07:02:51.578Z,23.64
2022-08-21T07:07:55.433Z,23.88
2022-08-21T07:13:00.551Z,23.97
2022-08-21T07:18:05.223Z,24.17
2022-08-21T07:23:15.554Z,24.40
2022-08-21T07:28:19.217Z,24.40
2022-08-21T07:33:24.620Z,24.59
2022-08-21T07:38:28.456Z,24.70
2022-08-21T07:43:31.921Z,24.59
2022-08-21T07:48:35.137Z,24.55
2022-08-21T07:53:39.502Z,24.61
2022-08-21T07:58:42.758Z,24.81
2022-08-21T08:03:46.596Z,25.00
2022-08-21T08:08:50.237Z,25.29
2022-08-21T08:13:53.735Z,25.49
2022-08-21T08:18:57.041Z,25.66
2022-08-21T08:24:00.680Z,25.89
2022-08-21T08:29:23.635Z,26.06
2022-08-21T08:34:26.896Z,26.33
2022-08-21T08:39:31.070Z,26.89
2022-08-21T08:44:35.833Z,27.27
2022-08-21T08:49:45.498Z,27.29
2022-08-21T08:55:04.452Z,27.27
2022-08-21T09:00:12.126Z,27.61
2022-08-21T09:05:26.699Z,27.91
2022-08-21T09:10:36.804Z,27.76
2022-08-21T09:16:03.575Z,27.49
2022-08-21T09:21:37.546Z,27.28
2022-08-21T09:27:00.750Z,27.09
2022-08-21T09:32:38.331Z,27.15
2022-08-21T09:38:08.480Z,27.01
2022-08-21T09:43:22.162Z,27.01
2022-08-21T09:48:32.741Z,26.89
2022-08-21T09:53:44.238Z,27.22
2022-08-21T09:58:51.402Z,27.68
2022-08-21T10:04:10.406Z,27.81
2022-08-21T10:09:21.482Z,27.70
2022-08-21T10:14:46.359Z,27.74
2022-08-21T10:20:02.784Z,27.62
2022-08-21T10:25:12.033Z,27.60
2022-08-21T10:30:26.911Z,27.62
2022-08-21T10:35:38.212Z,27.71
2022-08-21T10:40:44.491Z,27.94
2022-08-21T10:45:54.355Z,28.16
2022-08-21T10:51:28.972Z,28.37
2022-08-21T10:56:37.739Z,28.87
2022-08-21T11:01:59.174Z,29.26
2022-08-21T11:07:17.392Z,29.90
2022-08-21T11:12:35.083Z,30.27
2022-08-21T11:17:48.735Z,30.52
2022-08-21T11:23:03.673Z,31.06
2022-08-21T11:28:28.127Z,31.37
2022-08-21T11:33:53.965Z,31.51
2022-08-21T11:39:33.425Z,31.93
2022-08-21T11:45:08.685Z,31.91
2022-08-21T11:50:35.766Z,31.98
2022-08-21T11:55:52.376Z,32.10
2022-08-21T12:01:02.241Z,32.44
2022-08-21T12:06:12.927Z,32.27
2022-08-21T12:11:19.101Z,32.81
2022-08-21T12:16:36.091Z,33.11
2022-08-21T12:21:54.146Z,33.49
2022-08-21T12:26:59.163Z,32.91
2022-08-21T12:32:06.922Z,32.31
2022-08-21T12:37:23.227Z,32.05
2022-08-21T12:42:40.990Z,31.91
2022-08-21T12:48:01.536Z,31.57
2022-08-21T12:53:20.946Z,31.30
2022-08-21T12:58:26.029Z,31.24
2022-08-21T13:03:30.518Z,30.81
2022-08-21T13:08:41.643Z,30.53
2022-08-21T13:13:51.342Z,30.32
2022-08-21T13:18:59.192Z,29.78
2022-08-21T13:24:40.766Z,28.67
2022-08-21T13:29:40.733Z,27.92
2022-08-21T13:34:49.023Z,27.48
2022-08-21T13:39:57.418Z,27.26
2022-08-21T13:45:00.697Z,27.03
2022-08-21T13:50:04.827Z,26.64
2022-08-21T13:55:15.107Z,26.21
2022-08-21T14:00:26.299Z,25.78
2022-08-21T14:05:35.416Z,25.31
2022-08-21T14:10:45.924Z,24.96
2022-08-21T14:15:58.253Z,24.70
2022-08-21T14:21:26.675Z,24.55
2022-08-21T14:26:30.263Z,24.42
2022-08-21T14:31:36.768Z,24.27
2022-08-21T14:36:46.463Z,24.14
2022-08-21T14:41:50.538Z,23.47
2022-08-21T14:46:56.418Z,22.89
2022-08-21T14:52:00.593Z,22.65
2022-08-21T14:57:11.135Z,22.49
2022-08-21T15:02:14.535Z,22.42
2022-08-21T15:07:17.745Z,22.37
2022-08-21T15:12:21.260Z,22.29
2022-08-21T15:17:24.673Z,22.22
2022-08-21T15:22:28.659Z,22.16
2022-08-21T15:27:32.601Z,22.12
2022-08-21T15:32:36.350Z,21.97
2022-08-21T15:37:39.759Z,21.77
2022-08-21T15:42:44.197Z,21.64
2022-08-21T15:47:50.374Z,21.52
2022-08-21T15:52:54.403Z,21.39
2022-08-21T15:58:00.794Z,21.26
2022-08-21T16:03:08.422Z,21.16
2022-08-21T16:08:12.277Z,21.04
2022-08-21T16:13:26.593Z,20.95
2022-08-21T16:18:30.004Z,20.94
2022-08-21T16:23:36.587Z,20.96
2022-08-21T16:28:43.220Z,20.94
2022-08-21T16:33:51.917Z,20.90
2022-08-21T16:39:01.662Z,20.86
2022-08-21T16:44:07.242Z,20.86
2022-08-21T16:49:13.012Z,20.77
2022-08-21T16:54:16.426Z,20.69
2022-08-21T16:59:19.738Z,20.65
2022-08-21T17:04:23.048Z,20.61
2022-08-21T17:09:26.662Z,20.51
2022-08-21T17:14:30.079Z,20.49
2022-08-21T17:19:34.005Z,20.48
2022-08-21T17:24:38.382Z,20.42
2022-08-21T17:29:42.161Z,20.39
2022-08-21T17:34:46.395Z,20.34
2022-08-21T17:39:49.722Z,20.27
2022-08-21T17:44:53.220Z,20.22
2022-08-21T17:49:56.530Z,20.20
2022-08-21T17:54:59.945Z,20.15
2022-08-21T18:00:07.098Z,20.13
2022-08-21T18:05:13.443Z,20.08
2022-08-21T18:10:17.817Z,20.06
2022-08-21T18:15:21.644Z,19.98
2022-08-21T18:20:24.998Z,19.94
2022-08-21T18:25:29.291Z,19.92
2022-08-21T18:30:35.593Z,19.90
2022-08-21T18:35:39.029Z,19.87
2022-08-21T18:40:47.474Z,19.85
2022-08-21T18:45:51.844Z,19.84
2022-08-21T18:57:57.282Z,19.79
2022-08-21T19:03:01.907Z,19.77
2022-08-21T19:13:36.231Z,19.60
2022-08-21T19:18:41.574Z,19.46
2022-08-21T19:23:52.600Z,19.31
2022-08-21T19:28:59.753Z,19.20
2022-08-21T19:34:07.405Z,19.05
2022-08-21T19:39:13.095Z,18.97
2022-08-21T19:44:23.639Z,18.85
2022-08-21T19:49:33.278Z,18.82
2022-08-21T19:54:37.211Z,18.70
2022-08-21T19:59:42.369Z,18.60
2022-08-21T20:04:53.753Z,18.53
2022-08-21T20:10:10.800Z,18.48
2022-08-21T20:15:23.429Z,18.46
2022-08-21T20:20:26.739Z,18.43
2022-08-21T20:25:36.969Z,18.43
2022-08-21T20:30:46.813Z,18.41
2022-08-21T20:36:05.257Z,18.45
2022-08-21T20:41:21.165Z,18.40
2022-08-21T20:46:27.020Z,18.37
2022-08-21T20:51:39.832Z,18.43
2022-08-21T20:56:56.391Z,18.41
2022-08-21T21:02:15.993Z,18.38
2022-08-21T21:07:34.501Z,18.39
2022-08-21T21:12:43.028Z,18.31
2022-08-21T21:17:55.095Z,18.27
2022-08-21T21:23:12.499Z,18.24
2022-08-21T21:28:22.979Z,18.21
2022-08-21T21:33:28.699Z,18.21
2022-08-21T21:49:52.555Z,18.17
2022-08-21T21:55:18.046Z,18.09
2022-08-21T22:00:27.244Z,18.03
2022-08-21T22:05:33.615Z,17.87
2022-08-21T22:10:47.271Z,17.67
2022-08-21T22:15:53.094Z,17.46
2022-08-21T22:21:17.542Z,17.28
2022-08-21T22:32:08.380Z,16.99
2022-08-21T22:37:13.115Z,16.94
2022-08-21T22:42:25.610Z,16.86
2022-08-21T22:47:37.542Z,16.80
2022-08-21T22:52:47.380Z,16.71
2022-08-21T22:58:11.719Z,16.69
2022-08-21T23:08:55.818Z,16.67
2022-08-21T23:13:58.899Z,16.61
2022-08-21T23:19:27.167Z,16.59
2022-08-21T23:24:34.342Z,16.54
2022-08-21T23:29:45.022Z,16.58
2022-08-21T23:35:22.455Z,16.58
2022-08-21T23:40:37.521Z,16.57
2022-08-21T23:46:04.977Z,16.43
2022-08-21T23:51:37.675Z,16.38
2022-08-21T23:57:00.362Z,16.32
